sensor_id;sensor_type;location;lat;lon;timestamp;temperature;humidity
43561;DHT22;32305;46.410;17.394;2023-06-22T00:00:53;27.10;57.60
43561;DHT22;32305;46.410;17.394;2023-06-22T00:03:21;27.00;57.60
43561;DHT22;32305;46.410;17.394;2023-06-22T00:05:49;27.00;57.50
43561;DHT22;32305;46.410;17.394;2023-06-22T00:08:16;27.00;57.60
43561;DHT22;32305;46.410;17.394;2023-06-22T00:10:44;27.00;57.60
43561;DHT22;32305;46.410;17.394;2023-06-22T00:13:11;27.00;57.60
43561;DHT22;32305;46.410;17.394;2023-06-22T00:15:39;27.00;57.60
43561;DHT22;32305;46.410;17.394;2023-06-22T00:18:06;27.00;57.60
43561;DHT22;32305;46.410;17.394;2023-06-22T00:20:33;27.00;57.60
43561;DHT22;32305;46.410;17.394;2023-06-22T00:23:04;27.00;57.60
43561;DHT22;32305;46.410;17.394;2023-06-22T00:25:35;27.00;57.60
43561;DHT22;32305;46.410;17.394;2023-06-22T00:28:03;27.00;57.50
43561;DHT22;32305;46.410;17.394;2023-06-22T00:30:30;27.00;57.60
43561;DHT22;32305;46.410;17.394;2023-06-22T00:32:57;27.00;57.50
43561;DHT22;32305;46.410;17.394;2023-06-22T00:35:25;27.00;57.60
43561;DHT22;32305;46.410;17.394;2023-06-22T00:37:56;27.00;57.60
43561;DHT22;32305;46.410;17.394;2023-06-22T00:40:31;27.00;57.50
43561;DHT22;32305;46.410;17.394;2023-06-22T00:42:58;27.00;57.60
43561;DHT22;32305;46.410;17.394;2023-06-22T00:45:26;27.00;57.50
43561;DHT22;32305;46.410;17.394;2023-06-22T00:47:54;27.00;57.50
43561;DHT22;32305;46.410;17.394;2023-06-22T00:50:21;27.00;57.50
43561;DHT22;32305;46.410;17.394;2023-06-22T00:52:51;27.00;57.50
43561;DHT22;32305;46.410;17.394;2023-06-22T00:55:18;27.00;57.50
43561;DHT22;32305;46.410;17.394;2023-06-22T00:57:45;27.00;57.60
43561;DHT22;32305;46.410;17.394;2023-06-22T01:00:13;27.00;57.50
43561;DHT22;32305;46.410;17.394;2023-06-22T01:02:41;27.00;57.50
43561;DHT22;32305;46.410;17.394;2023-06-22T01:05:13;27.00;57.50
43561;DHT22;32305;46.410;17.394;2023-06-22T01:07:48;27.00;57.50
43561;DHT22;32305;46.410;17.394;2023-06-22T01:10:25;27.00;57.50
43561;DHT22;32305;46.410;17.394;2023-06-22T01:12:55;27.00;57.50
43561;DHT22;32305;46.410;17.394;2023-06-22T01:15:31;26.90;57.50
43561;DHT22;32305;46.410;17.394;2023-06-22T01:17:59;27.00;57.50
43561;DHT22;32305;46.410;17.394;2023-06-22T01:20:27;27.00;57.50
43561;DHT22;32305;46.410;17.394;2023-06-22T01:23:02;26.90;57.50
43561;DHT22;32305;46.410;17.394;2023-06-22T01:25:45;26.90;57.50
43561;DHT22;32305;46.410;17.394;2023-06-22T01:28:41;26.90;57.50
43561;DHT22;32305;46.410;17.394;2023-06-22T01:30:59;26.90;57.50
43561;DHT22;32305;46.410;17.394;2023-06-22T01:33:33;26.90;57.50
43561;DHT22;32305;46.410;17.394;2023-06-22T01:36:01;26.90;57.50
43561;DHT22;32305;46.410;17.394;2023-06-22T01:38:29;26.90;57.50
43561;DHT22;32305;46.410;17.394;2023-06-22T01:40:57;26.90;57.50
43561;DHT22;32305;46.410;17.394;2023-06-22T01:43:25;26.90;57.50
43561;DHT22;32305;46.410;17.394;2023-06-22T01:45:56;26.90;57.50
43561;DHT22;32305;46.410;17.394;2023-06-22T01:48:23;26.90;57.50
43561;DHT22;32305;46.410;17.394;2023-06-22T01:50:52;26.90;57.50
43561;DHT22;32305;46.410;17.394;2023-06-22T01:53:21;26.90;57.50
43561;DHT22;32305;46.410;17.394;2023-06-22T01:55:48;26.90;57.50
43561;DHT22;32305;46.410;17.394;2023-06-22T01:58:15;26.90;57.50
43561;DHT22;32305;46.410;17.394;2023-06-22T02:00:48;26.90;57.50
43561;DHT22;32305;46.410;17.394;2023-06-22T02:03:19;26.80;57.40
43561;DHT22;32305;46.410;17.394;2023-06-22T02:05:50;26.80;57.40
43561;DHT22;32305;46.410;17.394;2023-06-22T02:08:27;26.90;57.50
43561;DHT22;32305;46.410;17.394;2023-06-22T02:10:55;26.80;57.40
43561;DHT22;32305;46.410;17.394;2023-06-22T02:13:24;26.80;57.40
43561;DHT22;32305;46.410;17.394;2023-06-22T02:15:51;26.80;57.40
43561;DHT22;32305;46.410;17.394;2023-06-22T02:18:18;26.80;57.50
43561;DHT22;32305;46.410;17.394;2023-06-22T02:20:46;26.80;57.40
43561;DHT22;32305;46.410;17.394;2023-06-22T02:23:13;26.80;57.40
43561;DHT22;32305;46.410;17.394;2023-06-22T02:25:40;26.80;57.50
43561;DHT22;32305;46.410;17.394;2023-06-22T02:28:11;26.80;57.40
43561;DHT22;32305;46.410;17.394;2023-06-22T02:30:38;26.80;57.40
43561;DHT22;32305;46.410;17.394;2023-06-22T02:33:05;26.80;57.40
43561;DHT22;32305;46.410;17.394;2023-06-22T02:35:32;26.80;57.40
43561;DHT22;32305;46.410;17.394;2023-06-22T02:38:02;26.80;57.40
43561;DHT22;32305;46.410;17.394;2023-06-22T02:40:30;26.80;57.40
43561;DHT22;32305;46.410;17.394;2023-06-22T02:42:57;26.80;57.50
43561;DHT22;32305;46.410;17.394;2023-06-22T02:45:29;26.80;57.50
43561;DHT22;32305;46.410;17.394;2023-06-22T02:47:56;26.80;57.40
43561;DHT22;32305;46.410;17.394;2023-06-22T02:50:24;26.80;57.40
43561;DHT22;32305;46.410;17.394;2023-06-22T02:52:51;26.80;57.40
43561;DHT22;32305;46.410;17.394;2023-06-22T02:55:18;26.80;57.40
43561;DHT22;32305;46.410;17.394;2023-06-22T02:57:45;26.80;57.40
43561;DHT22;32305;46.410;17.394;2023-06-22T03:00:13;26.80;57.40
43561;DHT22;32305;46.410;17.394;2023-06-22T03:02:44;26.80;57.40
43561;DHT22;32305;46.410;17.394;2023-06-22T03:05:12;26.80;57.40
43561;DHT22;32305;46.410;17.394;2023-06-22T03:07:40;26.80;57.40
43561;DHT22;32305;46.410;17.394;2023-06-22T03:10:09;26.90;57.40
43561;DHT22;32305;46.410;17.394;2023-06-22T03:12:38;26.80;57.90
43561;DHT22;32305;46.410;17.394;2023-06-22T03:15:05;26.90;57.40
43561;DHT22;32305;46.410;17.394;2023-06-22T03:17:33;26.80;57.40
43561;DHT22;32305;46.410;17.394;2023-06-22T03:20:00;26.80;57.40
43561;DHT22;32305;46.410;17.394;2023-06-22T03:22:27;26.80;57.40
43561;DHT22;32305;46.410;17.394;2023-06-22T03:24:54;26.80;57.30
43561;DHT22;32305;46.410;17.394;2023-06-22T03:27:21;26.80;57.30
43561;DHT22;32305;46.410;17.394;2023-06-22T03:29:48;26.90;57.30
43561;DHT22;32305;46.410;17.394;2023-06-22T03:32:15;26.80;57.20
43561;DHT22;32305;46.410;17.394;2023-06-22T03:34:42;26.80;57.20
43561;DHT22;32305;46.410;17.394;2023-06-22T03:37:14;26.90;57.20
43561;DHT22;32305;46.410;17.394;2023-06-22T03:39:41;26.90;57.10
43561;DHT22;32305;46.410;17.394;2023-06-22T03:42:08;26.90;57.10
43561;DHT22;32305;46.410;17.394;2023-06-22T03:44:35;26.90;57.00
43561;DHT22;32305;46.410;17.394;2023-06-22T03:47:06;26.90;57.00
43561;DHT22;32305;46.410;17.394;2023-06-22T03:49:33;26.90;56.90
43561;DHT22;32305;46.410;17.394;2023-06-22T03:52:01;26.90;56.80
43561;DHT22;32305;46.410;17.394;2023-06-22T03:54:29;27.00;56.90
43561;DHT22;32305;46.410;17.394;2023-06-22T03:56:56;27.00;56.70
43561;DHT22;32305;46.410;17.394;2023-06-22T03:59:24;27.00;56.70
43561;DHT22;32305;46.410;17.394;2023-06-22T04:01:51;27.00;56.60
43561;DHT22;32305;46.410;17.394;2023-06-22T04:04:18;27.10;56.60
43561;DHT22;32305;46.410;17.394;2023-06-22T04:06:45;27.10;56.50
43561;DHT22;32305;46.410;17.394;2023-06-22T04:09:12;27.10;56.40
43561;DHT22;32305;46.410;17.394;2023-06-22T04:11:39;27.10;56.40
43561;DHT22;32305;46.410;17.394;2023-06-22T04:14:06;27.20;56.40
43561;DHT22;32305;46.410;17.394;2023-06-22T04:16:33;27.20;56.30
43561;DHT22;32305;46.410;17.394;2023-06-22T04:19:00;27.20;56.20
43561;DHT22;32305;46.410;17.394;2023-06-22T04:21:27;27.20;56.10
43561;DHT22;32305;46.410;17.394;2023-06-22T04:23:54;27.20;56.10
43561;DHT22;32305;46.410;17.394;2023-06-22T04:26:21;27.20;56.00
43561;DHT22;32305;46.410;17.394;2023-06-22T04:28:48;27.20;55.90
43561;DHT22;32305;46.410;17.394;2023-06-22T04:31:18;27.30;55.90
43561;DHT22;32305;46.410;17.394;2023-06-22T04:33:48;27.30;55.90
43561;DHT22;32305;46.410;17.394;2023-06-22T04:36:18;27.20;55.90
43561;DHT22;32305;46.410;17.394;2023-06-22T04:38:45;27.10;56.20
43561;DHT22;32305;46.410;17.394;2023-06-22T04:41:12;27.00;56.70
43561;DHT22;32305;46.410;17.394;2023-06-22T04:43:41;26.80;57.40
43561;DHT22;32305;46.410;17.394;2023-06-22T04:46:07;26.50;57.50
43561;DHT22;32305;46.410;17.394;2023-06-22T04:48:34;26.30;57.10
43561;DHT22;32305;46.410;17.394;2023-06-22T04:51:02;26.00;56.70
43561;DHT22;32305;46.410;17.394;2023-06-22T04:53:31;25.70;56.30
43561;DHT22;32305;46.410;17.394;2023-06-22T04:55:58;25.50;55.80
43561;DHT22;32305;46.410;17.394;2023-06-22T04:58:25;25.20;55.40
43561;DHT22;32305;46.410;17.394;2023-06-22T05:00:55;24.90;55.20
43561;DHT22;32305;46.410;17.394;2023-06-22T05:03:26;24.70;55.20
43561;DHT22;32305;46.410;17.394;2023-06-22T05:05:54;24.40;56.80
43561;DHT22;32305;46.410;17.394;2023-06-22T05:08:21;24.20;55.40
43561;DHT22;32305;46.410;17.394;2023-06-22T05:10:48;23.90;59.60
43561;DHT22;32305;46.410;17.394;2023-06-22T05:13:31;23.60;58.70
43561;DHT22;32305;46.410;17.394;2023-06-22T05:15:58;23.30;61.20
43561;DHT22;32305;46.410;17.394;2023-06-22T05:18:28;23.00;59.00
43561;DHT22;32305;46.410;17.394;2023-06-22T05:20:57;22.80;62.20
43561;DHT22;32305;46.410;17.394;2023-06-22T05:23:24;22.60;61.60
43561;DHT22;32305;46.410;17.394;2023-06-22T05:25:54;22.50;60.70
43561;DHT22;32305;46.410;17.394;2023-06-22T05:28:24;22.30;60.70
43561;DHT22;32305;46.410;17.394;2023-06-22T05:30:51;22.20;59.80
43561;DHT22;32305;46.410;17.394;2023-06-22T05:33:18;22.00;59.50
43561;DHT22;32305;46.410;17.394;2023-06-22T05:35:46;21.90;59.30
43561;DHT22;32305;46.410;17.394;2023-06-22T05:38:14;21.70;62.00
43561;DHT22;32305;46.410;17.394;2023-06-22T05:40:41;21.60;59.10
43561;DHT22;32305;46.410;17.394;2023-06-22T05:43:07;21.40;59.60
43561;DHT22;32305;46.410;17.394;2023-06-22T05:45:35;21.10;61.40
43561;DHT22;32305;46.410;17.394;2023-06-22T05:48:02;21.00;62.20
43561;DHT22;32305;46.410;17.394;2023-06-22T05:50:29;20.90;64.00
43561;DHT22;32305;46.410;17.394;2023-06-22T05:52:56;20.90;65.50
43561;DHT22;32305;46.410;17.394;2023-06-22T05:55:23;20.80;65.30
43561;DHT22;32305;46.410;17.394;2023-06-22T05:57:50;20.70;64.00
43561;DHT22;32305;46.410;17.394;2023-06-22T06:00:18;20.70;66.70
43561;DHT22;32305;46.410;17.394;2023-06-22T06:02:45;20.70;65.20
43561;DHT22;32305;46.410;17.394;2023-06-22T06:05:13;20.70;64.60
43561;DHT22;32305;46.410;17.394;2023-06-22T06:07:43;20.80;64.10
43561;DHT22;32305;46.410;17.394;2023-06-22T06:10:10;20.90;65.30
43561;DHT22;32305;46.410;17.394;2023-06-22T06:12:37;21.10;66.40
43561;DHT22;32305;46.410;17.394;2023-06-22T06:15:04;21.10;65.80
43561;DHT22;32305;46.410;17.394;2023-06-22T06:17:32;21.20;63.90
43561;DHT22;32305;46.410;17.394;2023-06-22T06:19:59;21.20;63.90
43561;DHT22;32305;46.410;17.394;2023-06-22T06:22:27;21.20;64.20
43561;DHT22;32305;46.410;17.394;2023-06-22T06:24:54;21.20;63.30
43561;DHT22;32305;46.410;17.394;2023-06-22T06:27:21;21.20;63.20
43561;DHT22;32305;46.410;17.394;2023-06-22T06:29:48;21.20;62.90
43561;DHT22;32305;46.410;17.394;2023-06-22T06:32:15;21.10;63.00
43561;DHT22;32305;46.410;17.394;2023-06-22T06:34:42;21.10;63.20
43561;DHT22;32305;46.410;17.394;2023-06-22T06:37:10;21.10;63.70
43561;DHT22;32305;46.410;17.394;2023-06-22T06:39:37;21.10;63.90
43561;DHT22;32305;46.410;17.394;2023-06-22T06:42:04;21.10;64.00
43561;DHT22;32305;46.410;17.394;2023-06-22T06:44:31;21.10;64.50
43561;DHT22;32305;46.410;17.394;2023-06-22T06:46:58;21.10;64.30
43561;DHT22;32305;46.410;17.394;2023-06-22T06:49:26;21.10;64.40
43561;DHT22;32305;46.410;17.394;2023-06-22T06:51:53;21.10;64.70
43561;DHT22;32305;46.410;17.394;2023-06-22T06:54:22;21.20;64.80
43561;DHT22;32305;46.410;17.394;2023-06-22T06:56:49;21.20;64.10
43561;DHT22;32305;46.410;17.394;2023-06-22T06:59:16;21.20;64.80
43561;DHT22;32305;46.410;17.394;2023-06-22T07:01:43;21.30;64.30
43561;DHT22;32305;46.410;17.394;2023-06-22T07:04:11;21.30;64.40
43561;DHT22;32305;46.410;17.394;2023-06-22T07:06:38;21.30;64.10
43561;DHT22;32305;46.410;17.394;2023-06-22T07:09:05;21.30;64.30
43561;DHT22;32305;46.410;17.394;2023-06-22T07:11:33;21.30;63.90
43561;DHT22;32305;46.410;17.394;2023-06-22T07:14:01;21.30;63.30
43561;DHT22;32305;46.410;17.394;2023-06-22T07:16:28;21.30;63.20
43561;DHT22;32305;46.410;17.394;2023-06-22T07:18:56;21.30;64.00
43561;DHT22;32305;46.410;17.394;2023-06-22T07:21:23;21.40;63.70
43561;DHT22;32305;46.410;17.394;2023-06-22T07:23:50;21.40;63.80
43561;DHT22;32305;46.410;17.394;2023-06-22T07:26:18;21.50;63.60
43561;DHT22;32305;46.410;17.394;2023-06-22T07:28:45;21.50;63.40
43561;DHT22;32305;46.410;17.394;2023-06-22T07:31:12;21.50;63.20
43561;DHT22;32305;46.410;17.394;2023-06-22T07:33:41;21.50;63.00
43561;DHT22;32305;46.410;17.394;2023-06-22T07:36:08;21.50;63.30
43561;DHT22;32305;46.410;17.394;2023-06-22T07:38:35;21.50;63.20
43561;DHT22;32305;46.410;17.394;2023-06-22T07:41:02;21.50;62.90
43561;DHT22;32305;46.410;17.394;2023-06-22T07:43:32;21.50;62.80
43561;DHT22;32305;46.410;17.394;2023-06-22T07:46:01;21.50;62.60
43561;DHT22;32305;46.410;17.394;2023-06-22T07:48:28;21.40;63.40
43561;DHT22;32305;46.410;17.394;2023-06-22T07:50:56;21.40;63.10
43561;DHT22;32305;46.410;17.394;2023-06-22T07:53:23;21.50;64.20
43561;DHT22;32305;46.410;17.394;2023-06-22T07:55:50;21.50;64.40
43561;DHT22;32305;46.410;17.394;2023-06-22T07:58:17;21.50;64.20
43561;DHT22;32305;46.410;17.394;2023-06-22T08:00:46;21.60;64.00
43561;DHT22;32305;46.410;17.394;2023-06-22T08:03:13;21.60;64.30
43561;DHT22;32305;46.410;17.394;2023-06-22T08:05:40;21.70;63.70
43561;DHT22;32305;46.410;17.394;2023-06-22T08:08:07;21.80;63.80
43561;DHT22;32305;46.410;17.394;2023-06-22T08:10:34;21.80;63.60
43561;DHT22;32305;46.410;17.394;2023-06-22T08:13:03;21.90;63.20
43561;DHT22;32305;46.410;17.394;2023-06-22T08:15:30;21.90;63.20
43561;DHT22;32305;46.410;17.394;2023-06-22T08:17:57;21.90;62.90
43561;DHT22;32305;46.410;17.394;2023-06-22T08:20:26;21.90;62.50
43561;DHT22;32305;46.410;17.394;2023-06-22T08:22:54;21.90;63.20
43561;DHT22;32305;46.410;17.394;2023-06-22T08:25:21;21.90;63.00
43561;DHT22;32305;46.410;17.394;2023-06-22T08:27:48;21.90;63.10
43561;DHT22;32305;46.410;17.394;2023-06-22T08:30:16;21.90;62.70
43561;DHT22;32305;46.410;17.394;2023-06-22T08:32:44;22.00;62.90
43561;DHT22;32305;46.410;17.394;2023-06-22T08:35:11;22.00;62.50
43561;DHT22;32305;46.410;17.394;2023-06-22T08:37:39;22.00;62.80
43561;DHT22;32305;46.410;17.394;2023-06-22T08:40:08;22.00;62.70
43561;DHT22;32305;46.410;17.394;2023-06-22T08:42:36;22.00;62.30
43561;DHT22;32305;46.410;17.394;2023-06-22T08:45:04;22.00;62.50
43561;DHT22;32305;46.410;17.394;2023-06-22T08:47:32;22.00;62.30
43561;DHT22;32305;46.410;17.394;2023-06-22T08:49:59;22.10;62.40
43561;DHT22;32305;46.410;17.394;2023-06-22T08:52:29;22.10;62.30
43561;DHT22;32305;46.410;17.394;2023-06-22T08:54:56;22.10;62.40
43561;DHT22;32305;46.410;17.394;2023-06-22T08:57:23;22.10;62.30
43561;DHT22;32305;46.410;17.394;2023-06-22T08:59:50;22.20;62.10
43561;DHT22;32305;46.410;17.394;2023-06-22T09:02:19;22.20;62.30
43561;DHT22;32305;46.410;17.394;2023-06-22T09:04:46;22.20;62.20
43561;DHT22;32305;46.410;17.394;2023-06-22T09:07:14;22.20;62.30
43561;DHT22;32305;46.410;17.394;2023-06-22T09:09:41;22.20;62.10
43561;DHT22;32305;46.410;17.394;2023-06-22T09:12:08;22.20;62.30
43561;DHT22;32305;46.410;17.394;2023-06-22T09:14:36;22.30;62.50
43561;DHT22;32305;46.410;17.394;2023-06-22T09:17:03;22.30;62.00
43561;DHT22;32305;46.410;17.394;2023-06-22T09:19:30;22.30;62.50
43561;DHT22;32305;46.410;17.394;2023-06-22T09:21:57;22.30;62.40
43561;DHT22;32305;46.410;17.394;2023-06-22T09:24:24;22.40;62.10
43561;DHT22;32305;46.410;17.394;2023-06-22T09:26:51;22.40;62.00
43561;DHT22;32305;46.410;17.394;2023-06-22T09:29:18;22.40;62.00
43561;DHT22;32305;46.410;17.394;2023-06-22T09:31:45;22.50;61.80
43561;DHT22;32305;46.410;17.394;2023-06-22T09:34:12;22.50;61.90
43561;DHT22;32305;46.410;17.394;2023-06-22T09:36:40;22.50;61.80
43561;DHT22;32305;46.410;17.394;2023-06-22T09:39:08;22.50;61.60
43561;DHT22;32305;46.410;17.394;2023-06-22T09:41:36;22.50;61.80
43561;DHT22;32305;46.410;17.394;2023-06-22T09:44:03;22.50;61.70
43561;DHT22;32305;46.410;17.394;2023-06-22T09:46:30;22.60;61.80
43561;DHT22;32305;46.410;17.394;2023-06-22T09:48:56;22.60;61.30
43561;DHT22;32305;46.410;17.394;2023-06-22T09:51:24;22.60;61.60
43561;DHT22;32305;46.410;17.394;2023-06-22T09:53:51;22.60;61.30
43561;DHT22;32305;46.410;17.394;2023-06-22T09:56:20;22.60;61.50
43561;DHT22;32305;46.410;17.394;2023-06-22T09:58:47;22.60;61.20
43561;DHT22;32305;46.410;17.394;2023-06-22T10:01:14;22.60;61.20
43561;DHT22;32305;46.410;17.394;2023-06-22T10:03:41;22.50;61.30
43561;DHT22;32305;46.410;17.394;2023-06-22T10:06:08;22.60;60.80
43561;DHT22;32305;46.410;17.394;2023-06-22T10:08:35;22.60;61.20
43561;DHT22;32305;46.410;17.394;2023-06-22T10:11:03;22.60;61.60
43561;DHT22;32305;46.410;17.394;2023-06-22T10:13:30;22.70;60.70
43561;DHT22;32305;46.410;17.394;2023-06-22T10:15:57;22.70;60.80
43561;DHT22;32305;46.410;17.394;2023-06-22T10:18:25;22.70;60.70
43561;DHT22;32305;46.410;17.394;2023-06-22T10:20:52;22.70;60.30
43561;DHT22;32305;46.410;17.394;2023-06-22T10:23:19;22.70;61.00
43561;DHT22;32305;46.410;17.394;2023-06-22T10:25:47;22.70;60.60
43561;DHT22;32305;46.410;17.394;2023-06-22T10:28:14;22.70;60.70
43561;DHT22;32305;46.410;17.394;2023-06-22T10:30:41;22.70;60.50
43561;DHT22;32305;46.410;17.394;2023-06-22T10:33:09;22.70;60.30
43561;DHT22;32305;46.410;17.394;2023-06-22T10:35:36;22.70;60.80
43561;DHT22;32305;46.410;17.394;2023-06-22T10:38:07;22.60;59.80
43561;DHT22;32305;46.410;17.394;2023-06-22T10:40:35;22.70;60.20
43561;DHT22;32305;46.410;17.394;2023-06-22T10:43:02;22.60;60.40
43561;DHT22;32305;46.410;17.394;2023-06-22T10:45:29;22.50;60.50
43561;DHT22;32305;46.410;17.394;2023-06-22T10:47:56;22.50;60.00
43561;DHT22;32305;46.410;17.394;2023-06-22T10:50:25;22.50;60.80
43561;DHT22;32305;46.410;17.394;2023-06-22T10:52:52;22.50;60.50
43561;DHT22;32305;46.410;17.394;2023-06-22T10:55:19;22.50;60.50
43561;DHT22;32305;46.410;17.394;2023-06-22T10:57:46;22.50;60.50
43561;DHT22;32305;46.410;17.394;2023-06-22T11:00:14;22.50;60.80
43561;DHT22;32305;46.410;17.394;2023-06-22T11:02:43;22.50;60.30
43561;DHT22;32305;46.410;17.394;2023-06-22T11:05:10;22.50;60.20
43561;DHT22;32305;46.410;17.394;2023-06-22T11:07:41;22.50;60.90
43561;DHT22;32305;46.410;17.394;2023-06-22T11:10:11;22.50;59.80
43561;DHT22;32305;46.410;17.394;2023-06-22T11:12:39;22.50;60.30
43561;DHT22;32305;46.410;17.394;2023-06-22T11:15:06;22.50;60.00
43561;DHT22;32305;46.410;17.394;2023-06-22T11:17:33;22.40;59.70
43561;DHT22;32305;46.410;17.394;2023-06-22T11:20:03;22.40;59.70
43561;DHT22;32305;46.410;17.394;2023-06-22T11:22:41;22.40;60.10
43561;DHT22;32305;46.410;17.394;2023-06-22T11:25:08;22.40;60.10
43561;DHT22;32305;46.410;17.394;2023-06-22T11:27:35;22.40;60.70
43561;DHT22;32305;46.410;17.394;2023-06-22T11:30:02;22.40;60.80
43561;DHT22;32305;46.410;17.394;2023-06-22T11:32:29;22.40;60.90
43561;DHT22;32305;46.410;17.394;2023-06-22T11:34:57;22.40;60.60
43561;DHT22;32305;46.410;17.394;2023-06-22T11:37:24;22.50;60.60
43561;DHT22;32305;46.410;17.394;2023-06-22T11:39:51;22.50;60.90
43561;DHT22;32305;46.410;17.394;2023-06-22T11:42:32;22.50;62.60
43561;DHT22;32305;46.410;17.394;2023-06-22T11:45:04;22.70;64.50
43561;DHT22;32305;46.410;17.394;2023-06-22T11:47:31;22.90;64.10
43561;DHT22;32305;46.410;17.394;2023-06-22T11:49:58;23.10;63.80
43561;DHT22;32305;46.410;17.394;2023-06-22T11:52:25;23.30;63.90
43561;DHT22;32305;46.410;17.394;2023-06-22T11:54:54;23.50;63.40
43561;DHT22;32305;46.410;17.394;2023-06-22T11:57:22;23.60;63.40
43561;DHT22;32305;46.410;17.394;2023-06-22T11:59:49;23.70;62.90
43561;DHT22;32305;46.410;17.394;2023-06-22T12:02:16;23.80;62.50
43561;DHT22;32305;46.410;17.394;2023-06-22T12:04:43;23.90;62.20
43561;DHT22;32305;46.410;17.394;2023-06-22T12:07:10;24.00;62.10
43561;DHT22;32305;46.410;17.394;2023-06-22T12:09:38;24.00;62.30
43561;DHT22;32305;46.410;17.394;2023-06-22T12:12:05;24.10;62.50
43561;DHT22;32305;46.410;17.394;2023-06-22T12:14:32;24.10;62.30
43561;DHT22;32305;46.410;17.394;2023-06-22T12:16:59;24.10;62.20
43561;DHT22;32305;46.410;17.394;2023-06-22T12:19:26;24.20;62.10
43561;DHT22;32305;46.410;17.394;2023-06-22T12:21:54;24.30;62.30
43561;DHT22;32305;46.410;17.394;2023-06-22T12:24:21;24.30;62.30
43561;DHT22;32305;46.410;17.394;2023-06-22T12:26:48;24.30;62.10
43561;DHT22;32305;46.410;17.394;2023-06-22T12:29:15;24.30;61.90
43561;DHT22;32305;46.410;17.394;2023-06-22T12:31:42;24.30;61.70
43561;DHT22;32305;46.410;17.394;2023-06-22T12:34:10;24.30;61.90
43561;DHT22;32305;46.410;17.394;2023-06-22T12:36:37;24.30;61.70
43561;DHT22;32305;46.410;17.394;2023-06-22T12:39:05;24.30;61.40
43561;DHT22;32305;46.410;17.394;2023-06-22T12:41:32;24.30;61.20
43561;DHT22;32305;46.410;17.394;2023-06-22T12:44:00;24.30;60.80
43561;DHT22;32305;46.410;17.394;2023-06-22T12:46:28;24.30;60.90
43561;DHT22;32305;46.410;17.394;2023-06-22T12:48:56;24.40;60.50
43561;DHT22;32305;46.410;17.394;2023-06-22T12:51:23;24.30;60.40
43561;DHT22;32305;46.410;17.394;2023-06-22T12:53:50;24.30;60.40
43561;DHT22;32305;46.410;17.394;2023-06-22T12:56:17;24.30;60.30
43561;DHT22;32305;46.410;17.394;2023-06-22T12:58:45;24.30;60.40
43561;DHT22;32305;46.410;17.394;2023-06-22T13:01:12;24.30;60.30
43561;DHT22;32305;46.410;17.394;2023-06-22T13:03:40;24.40;60.40
43561;DHT22;32305;46.410;17.394;2023-06-22T13:06:07;24.40;60.20
43561;DHT22;32305;46.410;17.394;2023-06-22T13:08:34;24.40;60.20
43561;DHT22;32305;46.410;17.394;2023-06-22T13:11:21;24.40;60.20
43561;DHT22;32305;46.410;17.394;2023-06-22T13:13:50;24.40;60.10
43561;DHT22;32305;46.410;17.394;2023-06-22T13:16:17;24.40;60.10
43561;DHT22;32305;46.410;17.394;2023-06-22T13:18:44;24.40;60.10
43561;DHT22;32305;46.410;17.394;2023-06-22T13:21:12;24.40;59.90
43561;DHT22;32305;46.410;17.394;2023-06-22T13:23:40;24.40;60.00
43561;DHT22;32305;46.410;17.394;2023-06-22T13:26:08;24.40;60.00
43561;DHT22;32305;46.410;17.394;2023-06-22T13:28:35;24.40;60.00
43561;DHT22;32305;46.410;17.394;2023-06-22T13:31:02;24.40;60.10
43561;DHT22;32305;46.410;17.394;2023-06-22T13:33:29;24.40;60.00
43561;DHT22;32305;46.410;17.394;2023-06-22T13:35:56;24.40;59.90
43561;DHT22;32305;46.410;17.394;2023-06-22T13:38:26;24.40;59.80
43561;DHT22;32305;46.410;17.394;2023-06-22T13:40:53;24.40;59.80
43561;DHT22;32305;46.410;17.394;2023-06-22T13:43:22;24.40;59.70
43561;DHT22;32305;46.410;17.394;2023-06-22T13:45:50;24.30;59.60
43561;DHT22;32305;46.410;17.394;2023-06-22T13:48:17;24.40;60.00
43561;DHT22;32305;46.410;17.394;2023-06-22T13:50:44;24.40;60.10
43561;DHT22;32305;46.410;17.394;2023-06-22T13:53:11;24.40;59.90
43561;DHT22;32305;46.410;17.394;2023-06-22T13:55:38;24.30;59.80
43561;DHT22;32305;46.410;17.394;2023-06-22T13:58:05;24.30;59.60
43561;DHT22;32305;46.410;17.394;2023-06-22T14:00:32;24.30;59.50
43561;DHT22;32305;46.410;17.394;2023-06-22T14:02:59;24.30;59.50
43561;DHT22;32305;46.410;17.394;2023-06-22T14:05:27;24.40;66.10
43561;DHT22;32305;46.410;17.394;2023-06-22T14:07:57;24.50;68.60
43561;DHT22;32305;46.410;17.394;2023-06-22T14:10:24;24.60;70.00
43561;DHT22;32305;46.410;17.394;2023-06-22T14:12:52;24.70;70.50
43561;DHT22;32305;46.410;17.394;2023-06-22T14:15:22;24.90;70.80
43561;DHT22;32305;46.410;17.394;2023-06-22T14:17:49;25.10;71.50
43561;DHT22;32305;46.410;17.394;2023-06-22T14:20:17;25.30;71.60
43561;DHT22;32305;46.410;17.394;2023-06-22T14:22:43;25.40;71.50
43561;DHT22;32305;46.410;17.394;2023-06-22T14:25:10;25.60;71.00
43561;DHT22;32305;46.410;17.394;2023-06-22T14:27:37;25.70;70.40
43561;DHT22;32305;46.410;17.394;2023-06-22T14:30:05;25.90;69.90
43561;DHT22;32305;46.410;17.394;2023-06-22T14:32:33;26.00;69.60
43561;DHT22;32305;46.410;17.394;2023-06-22T14:35:00;26.10;68.80
43561;DHT22;32305;46.410;17.394;2023-06-22T14:37:27;26.30;69.00
43561;DHT22;32305;46.410;17.394;2023-06-22T14:39:55;26.40;68.10
43561;DHT22;32305;46.410;17.394;2023-06-22T14:42:22;26.50;67.30
43561;DHT22;32305;46.410;17.394;2023-06-22T14:44:49;26.60;66.60
43561;DHT22;32305;46.410;17.394;2023-06-22T14:47:16;26.80;66.20
43561;DHT22;32305;46.410;17.394;2023-06-22T14:49:45;26.80;65.70
43561;DHT22;32305;46.410;17.394;2023-06-22T14:52:12;27.00;65.30
43561;DHT22;32305;46.410;17.394;2023-06-22T14:54:40;27.00;64.90
43561;DHT22;32305;46.410;17.394;2023-06-22T14:57:07;27.20;64.80
43561;DHT22;32305;46.410;17.394;2023-06-22T14:59:34;27.30;64.50
43561;DHT22;32305;46.410;17.394;2023-06-22T15:02:01;27.30;64.30
43561;DHT22;32305;46.410;17.394;2023-06-22T15:04:29;27.40;63.90
43561;DHT22;32305;46.410;17.394;2023-06-22T15:07:01;27.50;63.50
43561;DHT22;32305;46.410;17.394;2023-06-22T15:09:28;27.50;63.60
43561;DHT22;32305;46.410;17.394;2023-06-22T15:11:55;27.70;63.40
43561;DHT22;32305;46.410;17.394;2023-06-22T15:14:22;27.70;62.90
43561;DHT22;32305;46.410;17.394;2023-06-22T15:16:49;27.80;62.50
43561;DHT22;32305;46.410;17.394;2023-06-22T15:19:17;27.90;62.90